Wetterstation Vordersexau
Wetterdaten: Woche 27.03.17 - 02.04.17 (KW13)
Datum Zeit Temp. A. Feuchte A. Luftdruck Regen Wind Richtung Taupunkt Windchill Windben
27.03.2017 00:00 5,9 C 75 % 1018,9 hPa 0,0 l/m 0,0 km/h O-SO 1,8 C 5,9 C 0,0 km/h
27.03.2017 01:00 6,7 C 71 % 1018,8 hPa 0,0 l/m 0,0 km/h O-SO 1,8 C 6,7 C 0,0 km/h
27.03.2017 02:00 6,7 C 71 % 1018,8 hPa 0,0 l/m 0,0 km/h NO 1,8 C 6,7 C 0,0 km/h
27.03.2017 03:00 6,3 C 67 % 1018,3 hPa 0,0 l/m 0,0 km/h O 0,6 C 6,3 C 0,0 km/h
27.03.2017 04:00 4,5 C 70 % 1018,0 hPa 0,0 l/m 0,0 km/h SO -0,5 C 4,5 C 0,0 km/h
27.03.2017 05:00 3,6 C 70 % 1018,0 hPa 0,0 l/m 0,0 km/h SO -1,3 C 3,6 C 0,0 km/h
27.03.2017 06:00 2,4 C 72 % 1018,0 hPa 0,0 l/m 0,0 km/h O-SO -2,1 C 2,4 C 0,0 km/h
27.03.2017 07:00 1,9 C 72 % 1018,5 hPa 0,0 l/m 0,0 km/h O-NO -2,6 C 1,9 C 0,0 km/h
27.03.2017 08:00 1,9 C 74 % 1019,3 hPa 0,0 l/m 0,0 km/h N-NW -2,2 C 1,9 C 0,0 km/h
27.03.2017 09:00 6,4 C 74 % 1019,7 hPa 0,0 l/m 0,0 km/h N-NW 2,1 C 6,4 C 0,0 km/h
27.03.2017 10:00 15,6 C 49 % 1019,6 hPa 0,0 l/m 0,0 km/h W-SW 4,9 C 15,6 C 0,0 km/h
27.03.2017 11:00 15,9 C 45 % 1019,7 hPa 0,0 l/m 0,0 km/h SW 4,0 C 15,9 C 0,0 km/h
27.03.2017 12:00 16,5 C 45 % 1019,8 hPa 0,0 l/m 2,6 km/h S 4,5 C 16,5 C 1,4 km/h
27.03.2017 13:00 19,2 C 42 % 1019,8 hPa 0,0 l/m 5,2 km/h N 6,0 C 19,2 C 2,9 km/h
27.03.2017 14:00 20,3 C 41 % 1019,4 hPa 0,0 l/m 11,7 km/h S-SW 6,6 C 18,5 C 6,5 km/h
27.03.2017 15:00 22,3 C 38 % 1018,9 hPa 0,0 l/m 0,0 km/h W 7,3 C 22,3 C 0,0 km/h
27.03.2017 16:00 24,6 C 36 % 1018,3 hPa 0,0 l/m 0,0 km/h W 8,5 C 24,6 C 0,0 km/h
27.03.2017 17:00 26,6 C 29 % 1017,9 hPa 0,0 l/m 8,4 km/h W-NW 7,1 C 26,2 C 4,7 km/h
27.03.2017 18:00 27,6 C 28 % 1017,7 hPa 0,0 l/m 0,0 km/h W 7,4 C 27,6 C 0,0 km/h
27.03.2017 19:00 24,4 C 31 % 1017,7 hPa 0,0 l/m 0,0 km/h W 6,2 C 24,4 C 0,0 km/h
27.03.2017 20:00 14,5 C 45 % 1018,0 hPa 0,0 l/m 0,0 km/h W 2,7 C 14,5 C 0,0 km/h
27.03.2017 21:00 10,2 C 63 % 1018,5 hPa 0,0 l/m 0,0 km/h W-NW 3,5 C 10,2 C 0,0 km/h
27.03.2017 22:00 8,1 C 68 % 1019,2 hPa 0,0 l/m 0,0 km/h SO 2,6 C 8,1 C 0,0 km/h
27.03.2017 23:00 7,4 C 73 % 1019,2 hPa 0,0 l/m 0,0 km/h O-SO 2,9 C 7,4 C 0,0 km/h
28.03.2017 00:00 6,9 C 77 % 1019,6 hPa 0,0 l/m 0,0 km/h O-SO 3,2 C 6,9 C 0,0 km/h
28.03.2017 01:00 6,1 C 79 % 1019,8 hPa 0,0 l/m 0,0 km/h NO 2,7 C 6,1 C 0,0 km/h
28.03.2017 02:00 6,1 C 81 % 1019,9 hPa 0,0 l/m 0,0 km/h N 3,1 C 6,1 C 0,0 km/h
28.03.2017 03:00 5,1 C 82 % 1020,2 hPa 0,0 l/m 0,0 km/h O-NO 2,3 C 5,1 C 0,0 km/h
28.03.2017 04:00 4,4 C 83 % 1020,1 hPa 0,0 l/m 0,0 km/h O-SO 1,8 C 4,4 C 0,0 km/h
28.03.2017 05:00 4,2 C 84 % 1020,2 hPa 0,0 l/m 0,0 km/h O-NO 1,7 C 4,2 C 0,0 km/h
28.03.2017 06:00 3,8 C 84 % 1020,7 hPa 0,0 l/m 0,0 km/h O 1,4 C 3,8 C 0,0 km/h
28.03.2017 07:00 3,7 C 85 % 1020,7 hPa 0,0 l/m 0,0 km/h O-SO 1,4 C 3,7 C 0,0 km/h
28.03.2017 08:00 4,5 C 85 % 1020,9 hPa 0,0 l/m 17,5 km/h O-SO 2,2 C -2,7 C 9,7 km/h
28.03.2017 09:00 8,5 C 85 % 1021,0 hPa 0,0 l/m 0,0 km/h O-SO 6,1 C 8,5 C 0,0 km/h
28.03.2017 10:00 16,6 C 64 % 1021,4 hPa 0,0 l/m 0,0 km/h W-NW 9,8 C 16,6 C 0,0 km/h
28.03.2017 11:00 19,1 C 49 % 1021,4 hPa 0,0 l/m 23,3 km/h W 8,1 C 14,4 C 13,0 km/h
28.03.2017 12:00 20,4 C 45 % 1021,4 hPa 0,0 l/m 18,1 km/h W-SW 8,1 C 17,1 C 10,1 km/h
28.03.2017 13:00 21,9 C 41 % 1021,4 hPa 0,0 l/m 13,0 km/h W-SW 8,0 C 20,0 C 7,2 km/h
28.03.2017 14:00 23,5 C 41 % 1020,8 hPa 0,0 l/m 17,5 km/h W-SW 9,5 C 21,1 C 9,7 km/h
28.03.2017 15:00 23,8 C 40 % 1020,5 hPa 0,0 l/m 7,8 km/h W 9,4 C 23,4 C 4,3 km/h
28.03.2017 16:00 24,5 C 36 % 1020,0 hPa 0,0 l/m 14,3 km/h W 8,4 C 22,8 C 7,9 km/h
28.03.2017 17:00 26,6 C 32 % 1019,9 hPa 0,0 l/m 1,9 km/h W 8,5 C 26,6 C 1,1 km/h
28.03.2017 18:00 27,3 C 30 % 1019,8 hPa 0,0 l/m 1,9 km/h S-SW 8,2 C 27,3 C 1,1 km/h
28.03.2017 19:00 18,1 C 43 % 1019,9 hPa 0,0 l/m 0,0 km/h W 5,3 C 18,1 C 0,0 km/h
28.03.2017 20:00 16,4 C 48 % 1020,5 hPa 0,0 l/m 0,0 km/h W 5,4 C 16,4 C 0,0 km/h
28.03.2017 21:00 13,6 C 59 % 1021,4 hPa 0,0 l/m 0,0 km/h W-NW 5,7 C 13,6 C 0,0 km/h
28.03.2017 22:00 11,5 C 67 % 1022,2 hPa 0,0 l/m 0,0 km/h SO 5,6 C 11,5 C 0,0 km/h
28.03.2017 23:00 10,1 C 71 % 1022,6 hPa 0,0 l/m 0,0 km/h SO 5,1 C 10,1 C 0,0 km/h
29.03.2017 00:00 9,6 C 74 % 1023,3 hPa 0,0 l/m 0,0 km/h SO 5,2 C 9,6 C 0,0 km/h
29.03.2017 01:00 9,0 C 77 % 1024,1 hPa 0,0 l/m 0,0 km/h SO 5,2 C 9,0 C 0,0 km/h
29.03.2017 02:00 9,5 C 79 % 1024,0 hPa 0,0 l/m 0,0 km/h SO 6,0 C 9,5 C 0,0 km/h
29.03.2017 03:00 9,8 C 78 % 1024,1 hPa 0,0 l/m 0,0 km/h SO 6,1 C 9,8 C 0,0 km/h
29.03.2017 04:00 8,6 C 79 % 1024,3 hPa 0,0 l/m 0,0 km/h O-SO 5,2 C 8,6 C 0,0 km/h
29.03.2017 05:00 7,4 C 82 % 1024,4 hPa 0,0 l/m 0,0 km/h O-SO 4,5 C 7,4 C 0,0 km/h
29.03.2017 06:00 6,8 C 83 % 1024,7 hPa 0,0 l/m 0,0 km/h O-SO 4,1 C 6,8 C 0,0 km/h
29.03.2017 07:00 5,5 C 84 % 1025,0 hPa 0,0 l/m 0,0 km/h O-SO 3,0 C 5,5 C 0,0 km/h
29.03.2017 08:00 5,8 C 85 % 1025,2 hPa 0,0 l/m 0,0 km/h O-SO 3,5 C 5,8 C 0,0 km/h
29.03.2017 09:00 10,7 C 84 % 1025,6 hPa 0,0 l/m 0,0 km/h O-SO 8,1 C 10,7 C 0,0 km/h
29.03.2017 10:00 18,4 C 62 % 1025,7 hPa 0,0 l/m 0,0 km/h SO 11,0 C 18,4 C 0,0 km/h
29.03.2017 11:00 21,3 C 51 % 1026,0 hPa 0,0 l/m 0,0 km/h N 10,7 C 21,3 C 0,0 km/h
29.03.2017 12:00 22,5 C 45 % 1025,8 hPa 0,0 l/m 0,0 km/h S 10,0 C 22,5 C 0,0 km/h
29.03.2017 13:00 23,6 C 41 % 1025,1 hPa 0,0 l/m 0,0 km/h W 9,6 C 23,6 C 0,0 km/h
29.03.2017 14:00 23,9 C 38 % 1024,5 hPa 0,0 l/m 0,6 km/h W-SW 8,7 C 23,9 C 0,4 km/h
29.03.2017 15:00 23,6 C 38 % 1024,0 hPa 0,0 l/m 0,0 km/h S 8,4 C 23,6 C 0,0 km/h
29.03.2017 16:00 25,9 C 36 % 1023,3 hPa 0,0 l/m 4,5 km/h N-NO 9,7 C 25,9 C 2,5 km/h
29.03.2017 17:00 29,1 C 30 % 1022,6 hPa 0,0 l/m 0,0 km/h N 9,7 C 29,1 C 0,0 km/h
29.03.2017 18:00 28,3 C 28 % 1022,3 hPa 0,0 l/m 0,0 km/h W-NW 8,0 C 28,3 C 0,0 km/h
29.03.2017 19:00 23,5 C 34 % 1022,3 hPa 0,0 l/m 0,0 km/h W-NW 6,7 C 23,5 C 0,0 km/h
29.03.2017 20:00 15,6 C 50 % 1022,6 hPa 0,0 l/m 0,0 km/h O-SO 5,2 C 15,6 C 0,0 km/h
29.03.2017 21:00 11,9 C 61 % 1023,4 hPa 0,0 l/m 0,0 km/h O-SO 4,6 C 11,9 C 0,0 km/h
29.03.2017 22:00 10,3 C 68 % 1024,1 hPa 0,0 l/m 0,0 km/h O-SO 4,7 C 10,3 C 0,0 km/h
29.03.2017 23:00 9,4 C 72 % 1024,7 hPa 0,0 l/m 0,0 km/h O-NO 4,6 C 9,4 C 0,0 km/h
30.03.2017 00:00 9,1 C 74 % 1024,8 hPa 0,0 l/m 0,0 km/h O-NO 4,7 C 9,1 C 0,0 km/h
30.03.2017 01:00 8,8 C 77 % 1024,8 hPa 0,0 l/m 0,0 km/h O-SO 5,0 C 8,8 C 0,0 km/h
30.03.2017 02:00 8,3 C 78 % 1025,0 hPa 0,0 l/m 1,9 km/h O-SO 4,7 C 8,3 C 1,1 km/h
30.03.2017 03:00 6,7 C 79 % 1024,9 hPa 0,0 l/m 0,0 km/h O-SO 3,3 C 6,7 C 0,0 km/h
30.03.2017 04:00 6,9 C 81 % 1024,3 hPa 0,0 l/m 0,0 km/h O-NO 3,9 C 6,9 C 0,0 km/h
30.03.2017 05:00 6,4 C 82 % 1024,4 hPa 0,0 l/m 0,0 km/h O-NO 3,6 C 6,4 C 0,0 km/h
30.03.2017 06:00 4,9 C 83 % 1024,7 hPa 0,0 l/m 0,0 km/h O-NO 2,3 C 4,9 C 0,0 km/h
30.03.2017 07:00 4,4 C 84 % 1024,3 hPa 0,0 l/m 0,0 km/h NO 1,9 C 4,4 C 0,0 km/h
30.03.2017 08:00 5,3 C 85 % 1024,5 hPa 0,0 l/m 0,0 km/h O-NO 3,0 C 5,3 C 0,0 km/h
30.03.2017 09:00 9,1 C 84 % 1024,6 hPa 0,0 l/m 0,0 km/h W 6,5 C 9,1 C 0,0 km/h
30.03.2017 10:00 18,0 C 58 % 1024,3 hPa 0,0 l/m 0,0 km/h W 9,6 C 18,0 C 0,0 km/h
30.03.2017 11:00 18,5 C 54 % 1024,0 hPa 0,0 l/m 3,2 km/h W-NW 9,0 C 18,5 C 1,8 km/h
30.03.2017 12:00 20,4 C 51 % 1023,7 hPa 0,0 l/m 0,0 km/h SW 9,9 C 20,4 C 0,0 km/h
30.03.2017 13:00 22,8 C 49 % 1023,1 hPa 0,0 l/m 0,0 km/h N-NO 11,5 C 22,8 C 0,0 km/h
30.03.2017 14:00 24,3 C 43 % 1022,3 hPa 0,0 l/m 0,0 km/h NW 10,9 C 24,3 C 0,0 km/h
30.03.2017 15:00 25,8 C 40 % 1021,4 hPa 0,0 l/m 0,0 km/h NW 11,2 C 25,8 C 0,0 km/h
30.03.2017 16:00 27,4 C 38 % 1020,6 hPa 0,0 l/m 0,0 km/h W-NW 11,8 C 27,4 C 0,0 km/h
30.03.2017 17:00 30,0 C 33 % 1020,2 hPa 0,0 l/m 0,0 km/h N-NW 11,9 C 30,0 C 0,0 km/h
30.03.2017 18:00 30,8 C 31 % 1019,6 hPa 0,0 l/m 0,0 km/h W-NW 11,7 C 30,8 C 0,0 km/h
30.03.2017 19:00 28,5 C 33 % 1019,5 hPa 0,0 l/m 0,0 km/h W-NW 10,6 C 28,5 C 0,0 km/h
30.03.2017 20:00 18,4 C 48 % 1019,4 hPa 0,0 l/m 0,0 km/h W-NW 7,2 C 18,4 C 0,0 km/h
30.03.2017 21:00 13,8 C 64 % 1019,7 hPa 0,0 l/m 0,0 km/h O-SO 7,1 C 13,8 C 0,0 km/h
30.03.2017 22:00 12,2 C 71 % 1019,6 hPa 0,0 l/m 0,0 km/h O-SO 7,1 C 12,2 C 0,0 km/h
30.03.2017 23:00 10,8 C 75 % 1019,5 hPa 0,0 l/m 0,0 km/h O-SO 6,5 C 10,8 C 0,0 km/h
31.03.2017 00:00 9,8 C 78 % 1019,1 hPa 0,0 l/m 4,5 km/h O-SO 6,1 C 9,8 C 2,5 km/h
31.03.2017 01:00 9,5 C 79 % 1019,0 hPa 0,0 l/m 0,0 km/h O-SO 6,0 C 9,5 C 0,0 km/h
31.03.2017 02:00 8,2 C 80 % 1018,5 hPa 0,0 l/m 0,0 km/h O-SO 5,0 C 8,2 C 0,0 km/h
31.03.2017 03:00 7,1 C 82 % 1018,1 hPa 0,0 l/m 0,0 km/h O 4,2 C 7,1 C 0,0 km/h
31.03.2017 04:00 6,8 C 82 % 1017,7 hPa 0,0 l/m 0,0 km/h S-SO 3,9 C 6,8 C 0,0 km/h
31.03.2017 05:00 6,3 C 83 % 1017,5 hPa 0,0 l/m 0,0 km/h O-SO 3,6 C 6,3 C 0,0 km/h
31.03.2017 06:00 5,8 C 84 % 1017,2 hPa 0,0 l/m 0,0 km/h O-SO 3,3 C 5,8 C 0,0 km/h
31.03.2017 07:00 6,4 C 84 % 1017,0 hPa 0,0 l/m 0,0 km/h O-SO 3,9 C 6,4 C 0,0 km/h
31.03.2017 08:00 7,6 C 83 % 1016,7 hPa 0,0 l/m 4,5 km/h O-SO 4,9 C 7,6 C 2,5 km/h
31.03.2017 09:00 12,2 C 81 % 1016,8 hPa 0,0 l/m 0,0 km/h O-NO 9,0 C 12,2 C 0,0 km/h
31.03.2017 10:00 19,8 C 59 % 1017,0 hPa 0,0 l/m 0,0 km/h O 11,6 C 19,8 C 0,0 km/h
31.03.2017 11:00 23,9 C 44 % 1016,7 hPa 0,0 l/m 0,0 km/h NW 10,9 C 23,9 C 0,0 km/h
31.03.2017 12:00 23,9 C 44 % 1016,2 hPa 0,0 l/m 0,0 km/h W-NW 10,9 C 23,9 C 0,0 km/h
31.03.2017 13:00 25,8 C 38 % 1015,8 hPa 0,0 l/m 5,2 km/h W-SW 10,4 C 25,8 C 2,9 km/h
31.03.2017 14:00 26,6 C 40 % 1014,9 hPa 0,0 l/m 1,9 km/h W 11,9 C 26,6 C 1,1 km/h
31.03.2017 15:00 24,6 C 36 % 1014,4 hPa 0,0 l/m 0,0 km/h W 8,5 C 24,6 C 0,0 km/h
31.03.2017 16:00 24,0 C 33 % 1013,8 hPa 0,0 l/m 15,6 km/h W 6,7 C 22,0 C 8,6 km/h
31.03.2017 17:00 25,2 C 29 % 1013,3 hPa 0,0 l/m 13,6 km/h W 5,9 C 23,8 C 7,6 km/h
31.03.2017 18:00 21,7 C 32 % 1013,0 hPa 0,0 l/m 0,0 km/h W-NW 4,3 C 21,7 C 0,0 km/h
31.03.2017 19:00 19,1 C 41 % 1012,6 hPa 0,0 l/m 0,0 km/h SO 5,5 C 19,1 C 0,0 km/h
31.03.2017 20:00 15,3 C 51 % 1012,6 hPa 0,0 l/m 0,0 km/h O-SO 5,2 C 15,3 C 0,0 km/h
31.03.2017 21:00 13,1 C 55 % 1012,5 hPa 0,0 l/m 0,0 km/h O-SO 4,3 C 13,1 C 0,0 km/h
31.03.2017 22:00 11,3 C 60 % 1012,4 hPa 0,0 l/m 0,0 km/h O-SO 3,8 C 11,3 C 0,0 km/h
31.03.2017 23:00 10,4 C 63 % 1012,0 hPa 0,0 l/m 0,0 km/h O-SO 3,7 C 10,4 C 0,0 km/h
01.04.2017 01:00 8,5 C 68 % 1011,8 hPa 0,0 l/m 0,0 km/h O-SO 2,9 C 8,5 C 0,0 km/h
01.04.2017 02:00 7,9 C 69 % 1011,4 hPa 0,0 l/m 0,0 km/h O-SO 2,6 C 7,9 C 0,0 km/h
01.04.2017 03:00 7,4 C 70 % 1011,2 hPa 0,0 l/m 0,0 km/h O-SO 2,3 C 7,4 C 0,0 km/h
01.04.2017 04:00 8,2 C 72 % 1010,8 hPa 0,0 l/m 0,0 km/h O-SO 3,5 C 8,2 C 0,0 km/h
01.04.2017 05:00 7,5 C 72 % 1010,8 hPa 0,0 l/m 0,0 km/h O-SO 2,8 C 7,5 C 0,0 km/h
01.04.2017 06:00 6,9 C 75 % 1010,1 hPa 0,0 l/m 0,0 km/h O-SO 2,8 C 6,9 C 0,0 km/h
01.04.2017 07:00 6,9 C 76 % 1009,9 hPa 0,0 l/m 0,0 km/h O-SO 3,0 C 6,9 C 0,0 km/h
01.04.2017 08:00 7,4 C 76 % 1010,0 hPa 0,0 l/m 0,0 km/h O-SO 3,5 C 7,4 C 0,0 km/h
01.04.2017 09:00 9,0 C 76 % 1010,1 hPa 0,0 l/m 0,0 km/h O-SO 5,0 C 9,0 C 0,0 km/h
01.04.2017 10:00 12,4 C 72 % 1010,5 hPa 0,0 l/m 0,0 km/h S 7,5 C 12,4 C 0,0 km/h
01.04.2017 11:00 17,6 C 54 % 1010,4 hPa 0,0 l/m 7,1 km/h SW 8,2 C 17,3 C 4,0 km/h
01.04.2017 12:00 20,1 C 45 % 1010,1 hPa 0,0 l/m 3,9 km/h W 7,8 C 20,1 C 2,2 km/h
01.04.2017 13:00 22,3 C 41 % 1009,7 hPa 0,0 l/m 7,8 km/h N-NO 8,4 C 21,8 C 4,3 km/h
01.04.2017 14:00 21,9 C 38 % 1009,4 hPa 0,0 l/m 0,0 km/h W 6,9 C 21,9 C 0,0 km/h
01.04.2017 15:00 23,9 C 37 % 1008,9 hPa 0,0 l/m 3,2 km/h W 8,3 C 23,9 C 1,8 km/h
01.04.2017 16:00 22,1 C 39 % 1008,3 hPa 0,0 l/m 0,0 km/h W 7,5 C 22,1 C 0,0 km/h
01.04.2017 17:00 18,5 C 43 % 1008,5 hPa 0,0 l/m 2,6 km/h W 5,7 C 18,5 C 1,4 km/h
01.04.2017 18:00 17,1 C 49 % 1009,3 hPa 0,0 l/m 2,6 km/h NW 6,3 C 17,1 C 1,4 km/h
01.04.2017 19:00 15,1 C 53 % 1009,9 hPa 0,0 l/m 3,9 km/h W-SW 5,6 C 15,1 C 2,2 km/h
01.04.2017 20:00 13,8 C 57 % 1010,7 hPa 0,0 l/m 0,0 km/h W 5,4 C 13,8 C 0,0 km/h
01.04.2017 21:00 12,7 C 58 % 1011,5 hPa 0,0 l/m 0,0 km/h W 4,7 C 12,7 C 0,0 km/h
01.04.2017 22:00 11,4 C 60 % 1012,1 hPa 0,0 l/m 0,0 km/h W 3,9 C 11,4 C 0,0 km/h
01.04.2017 23:00 10,3 C 64 % 1012,4 hPa 0,0 l/m 0,0 km/h W 3,8 C 10,3 C 0,0 km/h
02.04.2017 00:00 8,6 C 70 % 1012,5 hPa 0,0 l/m 0,0 km/h W 3,4 C 8,6 C 0,0 km/h
02.04.2017 01:00 8,6 C 75 % 1012,9 hPa 0,0 l/m 0,0 km/h W 4,4 C 8,6 C 0,0 km/h
02.04.2017 02:00 8,6 C 76 % 1013,2 hPa 0,0 l/m 0,0 km/h W 4,6 C 8,6 C 0,0 km/h
02.04.2017 03:00 8,7 C 78 % 1013,3 hPa 0,0 l/m 0,0 km/h W 5,1 C 8,7 C 0,0 km/h
02.04.2017 04:00 8,7 C 79 % 1013,3 hPa 0,0 l/m 0,0 km/h W 5,3 C 8,7 C 0,0 km/h
02.04.2017 05:00 8,5 C 81 % 1013,2 hPa 0,0 l/m 0,0 km/h W 5,4 C 8,5 C 0,0 km/h
02.04.2017 06:00 8,5 C 83 % 1013,8 hPa 0,0 l/m 0,0 km/h W 5,8 C 8,5 C 0,0 km/h
02.04.2017 07:00 8,4 C 83 % 1014,3 hPa 0,0 l/m 0,0 km/h W 5,7 C 8,4 C 0,0 km/h
02.04.2017 08:00 8,6 C 84 % 1015,1 hPa 0,0 l/m 0,0 km/h W 6,1 C 8,6 C 0,0 km/h
02.04.2017 09:00 10,3 C 84 % 1015,2 hPa 0,0 l/m 0,0 km/h W-NW 7,7 C 10,3 C 0,0 km/h
02.04.2017 10:00 11,4 C 79 % 1015,8 hPa 0,0 l/m 0,0 km/h N 7,9 C 11,4 C 0,0 km/h
02.04.2017 11:00 13,3 C 71 % 1015,7 hPa 0,0 l/m 5,2 km/h N-NO 8,2 C 13,3 C 2,9 km/h
02.04.2017 12:00 16,9 C 60 % 1016,2 hPa 0,0 l/m 7,1 km/h NW 9,1 C 16,5 C 4,0 km/h
02.04.2017 13:00 19,9 C 52 % 1015,7 hPa 0,0 l/m 0,0 km/h NW 9,7 C 19,9 C 0,0 km/h
02.04.2017 14:00 17,3 C 58 % 1015,1 hPa 0,0 l/m 3,9 km/h N 9,0 C 17,3 C 2,2 km/h
02.04.2017 15:00 17,9 C 58 % 1015,2 hPa 0,0 l/m 9,7 km/h N 9,5 C 16,4 C 5,4 km/h
02.04.2017 16:00 18,3 C 55 % 1015,4 hPa 0,0 l/m 5,8 km/h N 9,1 C 18,3 C 3,2 km/h
02.04.2017 17:00 18,8 C 57 % 1015,4 hPa 0,0 l/m 9,7 km/h NW 10,1 C 17,4 C 5,4 km/h
02.04.2017 18:00 16,6 C 61 % 1015,8 hPa 0,0 l/m 0,0 km/h N 9,0 C 16,6 C 0,0 km/h
02.04.2017 19:00 15,4 C 65 % 1016,3 hPa 0,0 l/m 0,0 km/h N-NO 8,9 C 15,4 C 0,0 km/h
02.04.2017 20:00 13,9 C 68 % 1017,1 hPa 0,0 l/m 0,0 km/h N-NO 8,1 C 13,9 C 0,0 km/h
02.04.2017 21:00 12,9 C 71 % 1017,8 hPa 0,0 l/m 0,0 km/h N-NO 7,8 C 12,9 C 0,0 km/h
02.04.2017 22:00 12,4 C 74 % 1018,6 hPa 0,0 l/m 0,0 km/h N-NO 7,9 C 12,4 C 0,0 km/h
02.04.2017 23:00 12,1 C 78 % 1019,0 hPa 0,0 l/m 0,0 km/h N-NO 8,4 C 12,1 C 0,0 km/h
Min-Datum _ 27.03.17 27.03.17 01.04.17 - 27.03.17 - 27.03.17 28.03.17 27.03.17
_ Min-Zeit 07:57 18:57 16:57 - 00:57 - 07:57 08:57 00:57
Minimum _ 1,9 C 28 % 1008,3 hPa - 0,0 km/h - -2,6 C -2,7 C 0,0 km/h
Max-Datum _ 30.03.17 28.03.17 29.03.17 27.03.17 28.03.17 - 30.03.17 30.03.17 28.03.17
_ Max-Zeit 18:57 07:57 11:57 00:57 11:57 - 17:57 18:57 11:57
Maximum _ 30,8 C 85 % 1026,0 hPa 0,0 l/m 23,3 km/h
W
- 11,9 C 30,8 C 13,0 km/h
W
Durchschnitt _ 14,0 C 62 % 1018,3 hPa #0,0 l/m 1,6 km/h O-SO 5,9 C 13,9 C 0,9 km/h
www.sexauwetter.de